Blagovescensk, Russia
Current Conditions -  °F | °C
As of 4:00 PM on Sunday 26 Oct 2014 (Local Time) from UHBB Reporting Station
Broken Clouds Broken Clouds  
Wind Chill: 13°   Ceiling: 20000
Heat Index: 27°   Visibility: 6mi
Dew Point: 21°   Wind: 20mph
Humidity: 80%   Direction: 350°N
Pressure: 29.97"   Gusts: 31mph
Location:  50.25°N, 127.57°E
Report Text: UHBB 260700Z 35009G14MPS 9999 SCT026 BKN200 M03/M06 Q1015 NOSIGRMK QFE744/0992 36290050
Loading
Personal Weather Stations






























Interactive Weather Map
Tropical Storm Tracking
New forecast layout! Learn more

10-Day Weather Forecast

Advertisements
Track Severe Weather on mobile